Skip Navigation LinksHome page > Weather > Current weather Skip Navigation Links

Current Weather

Ronald Reagan Washington National, Washington

For information only: do not use for flight planning or navigation.
Latest weather
Observation time Sunday, May 1, 2016 8:52 PM EDT
Local time Sunday, May 1, 2016 9:22 PM EDT
Flight conditions Instrument Meteorological Conditions
Winds
Wind direction East (80°)
Wind speed 7 mph
Visibility 4 mi.
Present weather light drizzle, mist
Sky condition
Ceiling 500 ft. overcast
Cloud layer overcast 500 ft.
Temperature 56°F
Dewpoint 55°F
Altimeter 30.04 in.Hg
Precipitation
Precipitation last hour trace
Derived measurements
Relative humidity 97%
Density altitude -117 ft.
Sea-level pressure 30.04 in.Hg
Remarks
Automated weather observing station with precipitation discriminator.
METAR KDCA 020052Z 08006KT 4SM -DZ BR OVC005 13/13 A3004 RMK AO2 SLP171 P0000 T01330128

Settings

Location code

InnerDrive.Weather 4.0.5722.1 Release CLR 4.0.30319.34209
Copyright ©2015 Inner Drive Technology. All rights reserved. Portions Copyright ©1986-2015 David Braverman.

Find weather

Site navigation


Skip Navigation Links

Place info

Page info

PayPal - The safer, easier way to pay online!

Return home.

Copyright ©2016 Inner Drive Technology. Purveyors of fine, hand-crafted computer software. Page printed 2016-05-02T01:22:24 UTC.